createdAt,value
2022-12-22T00:00:35.180Z,31.83
2022-12-22T00:03:20.853Z,29.47
2022-12-22T00:06:06.443Z,30.80
2022-12-22T00:08:51.971Z,31.03
2022-12-22T00:11:46.196Z,29.63
2022-12-22T00:14:32.956Z,30.17
2022-12-22T00:17:20.780Z,29.63
2022-12-22T00:20:06.183Z,29.83
2022-12-22T00:22:51.746Z,28.10
2022-12-22T00:25:37.022Z,28.93
2022-12-22T00:28:31.767Z,27.87
2022-12-22T00:31:19.311Z,27.30
2022-12-22T00:34:04.567Z,27.77
2022-12-22T00:36:50.056Z,27.53
2022-12-22T00:39:35.775Z,27.77
2022-12-22T00:42:21.391Z,27.00
2022-12-22T00:45:06.878Z,27.83
2022-12-22T00:47:53.597Z,29.43
2022-12-22T00:50:45.986Z,30.30
2022-12-22T00:53:31.354Z,27.63
2022-12-22T00:56:17.279Z,30.10
2022-12-22T00:59:03.086Z,29.97
2022-12-22T01:01:48.861Z,30.57
2022-12-22T01:04:35.953Z,29.17
2022-12-22T01:07:22.504Z,31.57
2022-12-22T01:10:09.964Z,30.77
2022-12-22T01:12:57.498Z,31.30
2022-12-22T01:15:43.682Z,30.97
2022-12-22T01:18:29.496Z,30.70
2022-12-22T01:21:16.521Z,32.53
2022-12-22T01:24:03.093Z,31.90
2022-12-22T01:26:48.976Z,31.77
2022-12-22T01:29:34.557Z,30.90
2022-12-22T01:32:19.823Z,31.23
2022-12-22T01:35:05.459Z,31.30
2022-12-22T01:37:52.090Z,29.00
2022-12-22T01:40:41.580Z,30.23
2022-12-22T01:43:37.717Z,28.83
2022-12-22T01:46:43.519Z,28.77
2022-12-22T01:49:32.246Z,28.50
2022-12-22T01:52:18.179Z,28.50
2022-12-22T01:55:05.711Z,29.07
2022-12-22T01:57:52.348Z,27.33
2022-12-22T02:00:38.484Z,26.37
2022-12-22T02:03:34.523Z,27.87
2022-12-22T02:06:32.424Z,26.57
2022-12-22T02:09:43.283Z,27.03
2022-12-22T02:12:38.751Z,26.30
2022-12-22T02:15:34.440Z,27.30
2022-12-22T02:18:26.236Z,25.33
2022-12-22T02:21:13.921Z,26.20
2022-12-22T02:24:18.576Z,26.93
2022-12-22T02:27:08.891Z,27.07
2022-12-22T02:29:59.238Z,27.23
2022-12-22T02:32:45.111Z,25.30
2022-12-22T02:35:31.890Z,27.00
2022-12-22T02:38:27.103Z,26.13
2022-12-22T02:41:24.411Z,26.90
2022-12-22T02:44:29.574Z,26.83
2022-12-22T02:47:21.308Z,26.67
2022-12-22T02:50:12.791Z,25.50
2022-12-22T02:53:01.008Z,26.17
2022-12-22T02:55:47.407Z,24.80
2022-12-22T02:58:33.669Z,26.47
2022-12-22T03:01:22.132Z,25.10
2022-12-22T03:04:08.040Z,24.20
2022-12-22T03:06:53.308Z,24.97
2022-12-22T03:09:38.680Z,25.97
2022-12-22T03:12:24.200Z,24.90
2022-12-22T03:15:09.809Z,25.97
2022-12-22T03:17:56.827Z,23.60
2022-12-22T03:20:42.381Z,25.63
2022-12-22T03:23:27.870Z,26.13
2022-12-22T03:25:55.933Z,27.50
2022-12-22T03:28:26.547Z,26.77
2022-12-22T03:30:56.984Z,24.77
2022-12-22T03:33:26.456Z,27.67
2022-12-22T03:35:54.518Z,27.67
2022-12-22T03:38:22.891Z,26.37
2022-12-22T03:40:50.888Z,26.70
2022-12-22T03:43:37.103Z,27.97
2022-12-22T03:46:23.588Z,27.43
2022-12-22T03:49:11.283Z,28.73
2022-12-22T03:51:43.813Z,26.53
2022-12-22T03:54:13.455Z,28.93
2022-12-22T03:56:42.159Z,29.03
2022-12-22T03:59:10.407Z,28.10
2022-12-22T04:01:41.830Z,27.37
2022-12-22T04:04:13.547Z,28.23
2022-12-22T04:06:43.576Z,26.60
2022-12-22T04:09:13.341Z,26.80
2022-12-22T04:12:00.160Z,27.47
2022-12-22T04:14:33.992Z,25.97
2022-12-22T04:17:04.485Z,26.13
2022-12-22T04:19:35.473Z,25.10
2022-12-22T04:22:05.498Z,25.97
2022-12-22T04:24:34.904Z,24.30
2022-12-22T04:27:04.520Z,25.37
2022-12-22T04:29:36.412Z,25.57
2022-12-22T04:32:06.155Z,24.83
2022-12-22T04:34:35.865Z,25.20
2022-12-22T04:37:14.653Z,26.13
2022-12-22T04:39:44.946Z,26.17
2022-12-22T04:42:13.051Z,24.37
2022-12-22T04:44:41.010Z,26.87
2022-12-22T04:47:09.135Z,26.77
2022-12-22T04:49:38.529Z,25.63
2022-12-22T04:52:06.818Z,25.90
2022-12-22T04:54:34.939Z,26.93
2022-12-22T04:57:03.015Z,26.43
2022-12-22T04:59:31.014Z,27.70
2022-12-22T05:01:59.085Z,27.43
2022-12-22T05:04:27.340Z,27.57
2022-12-22T05:06:56.710Z,28.07
2022-12-22T05:09:24.706Z,27.90
2022-12-22T05:11:52.723Z,27.93
2022-12-22T05:14:20.714Z,28.80
2022-12-22T05:16:48.765Z,26.53
2022-12-22T05:19:16.861Z,26.17
2022-12-22T05:21:45.569Z,28.80
2022-12-22T05:24:15.819Z,30.47
2022-12-22T05:26:43.931Z,30.00
2022-12-22T05:29:11.898Z,29.10
2022-12-22T05:31:46.737Z,30.13
2022-12-22T05:34:15.235Z,31.07
2022-12-22T05:36:43.316Z,30.20
2022-12-22T05:39:11.348Z,28.33
2022-12-22T05:41:40.709Z,31.23
2022-12-22T05:44:08.734Z,30.47
2022-12-22T05:46:36.834Z,30.03
2022-12-22T05:49:04.854Z,30.27
2022-12-22T05:51:32.869Z,31.37
2022-12-22T05:54:00.891Z,31.40
2022-12-22T05:56:28.899Z,30.27
2022-12-22T05:58:58.233Z,30.50
2022-12-22T06:01:26.334Z,30.83
2022-12-22T06:03:59.797Z,29.63
2022-12-22T06:06:28.693Z,30.43
2022-12-22T06:08:56.737Z,29.43
2022-12-22T06:11:24.724Z,31.10
2022-12-22T06:13:52.744Z,31.90
2022-12-22T06:16:22.253Z,30.17
2022-12-22T06:18:50.320Z,31.90
2022-12-22T06:21:18.311Z,29.00
2022-12-22T06:23:46.802Z,29.90
2022-12-22T06:26:14.841Z,31.00
2022-12-22T06:28:42.820Z,30.43
2022-12-22T06:31:10.894Z,29.50
2022-12-22T06:33:40.258Z,29.97
2022-12-22T06:36:09.590Z,30.50
2022-12-22T06:38:37.638Z,28.20
2022-12-22T06:41:05.845Z,30.37
2022-12-22T06:43:32.985Z,29.40
2022-12-22T06:46:01.054Z,30.07
2022-12-22T06:48:29.240Z,30.43
2022-12-22T06:51:01.073Z,31.47
2022-12-22T06:53:29.080Z,26.60
2022-12-22T06:55:57.080Z,30.67
2022-12-22T06:58:25.096Z,30.27
2022-12-22T07:00:56.528Z,30.83
2022-12-22T07:03:24.677Z,30.00
2022-12-22T07:05:52.828Z,30.90
2022-12-22T07:08:22.338Z,33.40
2022-12-22T07:10:59.332Z,32.30
2022-12-22T07:13:29.347Z,32.73
2022-12-22T07:16:01.214Z,29.23
2022-12-22T07:18:30.834Z,32.07
2022-12-22T07:20:59.195Z,29.80
2022-12-22T07:23:28.974Z,29.63
2022-12-22T07:25:57.189Z,26.73
2022-12-22T07:28:25.582Z,28.63
2022-12-22T07:30:55.794Z,28.10
2022-12-22T07:33:24.034Z,23.67
2022-12-22T07:36:02.660Z,26.23
2022-12-22T07:38:33.434Z,26.10
2022-12-22T07:41:05.362Z,25.47
2022-12-22T07:43:33.503Z,24.00
2022-12-22T07:46:01.568Z,22.80
2022-12-22T07:48:46.999Z,23.83
2022-12-22T07:51:14.994Z,24.60
2022-12-22T07:53:44.432Z,23.27
2022-12-22T07:56:12.437Z,22.70
2022-12-22T07:58:40.527Z,22.17
2022-12-22T08:01:08.701Z,23.73
2022-12-22T08:03:36.696Z,21.47
2022-12-22T08:06:05.884Z,22.73
2022-12-22T08:08:34.936Z,21.50
2022-12-22T08:11:04.943Z,22.60
2022-12-22T08:13:33.063Z,21.33
2022-12-22T08:16:05.076Z,22.63
2022-12-22T08:18:33.350Z,22.53
2022-12-22T08:21:01.535Z,22.07
2022-12-22T08:23:29.684Z,22.93
2022-12-22T08:26:02.753Z,23.53
2022-12-22T08:28:34.974Z,24.20
2022-12-22T08:31:04.562Z,23.30
2022-12-22T08:33:33.024Z,23.83
2022-12-22T08:36:07.595Z,23.77
2022-12-22T08:38:37.183Z,23.90
2022-12-22T08:41:05.545Z,24.37
2022-12-22T08:43:35.101Z,23.77
2022-12-22T08:46:03.577Z,25.40
2022-12-22T08:48:31.655Z,26.73
2022-12-22T08:50:59.752Z,26.60
2022-12-22T08:54:03.033Z,25.63
2022-12-22T08:56:15.782Z,25.93
2022-12-22T08:58:45.320Z,26.57
2022-12-22T09:01:17.990Z,24.67
2022-12-22T09:03:50.052Z,25.03
2022-12-22T09:06:18.347Z,25.93
2022-12-22T09:08:46.726Z,23.17
2022-12-22T09:11:15.243Z,26.20
2022-12-22T09:13:44.691Z,25.83
2022-12-22T09:16:12.785Z,25.83
2022-12-22T09:18:40.831Z,24.50
2022-12-22T09:21:08.828Z,27.37
2022-12-22T09:23:36.863Z,25.97
2022-12-22T09:26:08.770Z,25.60
2022-12-22T09:28:37.291Z,25.20
2022-12-22T09:31:07.234Z,24.03
2022-12-22T09:33:37.167Z,23.73
2022-12-22T09:36:07.692Z,24.67
2022-12-22T09:38:38.083Z,25.03
2022-12-22T09:41:10.530Z,25.00
2022-12-22T09:43:38.776Z,23.87
2022-12-22T09:46:15.357Z,23.50
2022-12-22T09:48:43.424Z,23.03
2022-12-22T09:51:13.534Z,23.83
2022-12-22T09:53:42.186Z,22.83
2022-12-22T09:56:14.507Z,21.30
2022-12-22T09:58:43.458Z,24.37
2022-12-22T10:01:27.702Z,22.17
2022-12-22T10:04:02.090Z,22.90
2022-12-22T10:06:36.679Z,21.87
2022-12-22T10:09:48.126Z,22.23
2022-12-22T10:12:15.224Z,21.53
2022-12-22T10:14:45.219Z,21.80
2022-12-22T10:17:20.311Z,21.47
2022-12-22T10:19:50.054Z,21.10
2022-12-22T10:22:29.484Z,22.63
2022-12-22T10:24:57.770Z,23.00
2022-12-22T10:27:30.486Z,21.37
2022-12-22T10:30:20.395Z,21.63
2022-12-22T10:33:04.594Z,21.80
2022-12-22T10:35:45.974Z,20.90
2022-12-22T10:38:21.730Z,20.73
2022-12-22T10:40:56.576Z,20.37
2022-12-22T10:43:30.789Z,21.80
2022-12-22T10:45:59.806Z,21.43
2022-12-22T10:48:32.691Z,20.03
2022-12-22T10:51:01.516Z,20.83
2022-12-22T10:53:49.031Z,20.97
2022-12-22T10:56:30.199Z,21.27
2022-12-22T10:59:13.829Z,21.13
2022-12-22T11:01:41.914Z,22.17
2022-12-22T11:04:22.697Z,20.73
2022-12-22T11:06:51.059Z,19.83
2022-12-22T11:09:35.484Z,20.47
2022-12-22T11:12:13.539Z,21.83
2022-12-22T11:14:51.610Z,21.73
2022-12-22T11:17:27.108Z,20.60
2022-12-22T11:20:15.411Z,22.83
2022-12-22T11:22:51.475Z,21.13
2022-12-22T11:25:30.711Z,21.83
2022-12-22T11:28:13.638Z,20.60
2022-12-22T11:30:51.221Z,19.43
2022-12-22T11:33:32.879Z,20.47
2022-12-22T11:36:05.380Z,20.80
2022-12-22T11:38:46.818Z,19.90
2022-12-22T11:41:29.186Z,18.27
2022-12-22T11:44:27.071Z,18.57
2022-12-22T11:47:03.867Z,18.37
2022-12-22T11:51:00.807Z,15.33
2022-12-22T11:53:08.413Z,15.30
2022-12-22T11:55:41.119Z,14.73
2022-12-22T11:58:43.989Z,13.93
2022-12-22T12:01:34.091Z,14.90
2022-12-22T12:04:28.154Z,14.43
2022-12-22T12:07:21.939Z,13.83
2022-12-22T12:10:03.466Z,14.20
2022-12-22T12:12:42.010Z,15.67
2022-12-22T12:15:25.468Z,14.70
2022-12-22T12:18:21.275Z,16.03
2022-12-22T12:21:02.123Z,15.60
2022-12-22T12:24:06.875Z,15.33
2022-12-22T12:26:47.103Z,14.27
2022-12-22T12:29:18.325Z,15.00
2022-12-22T12:31:51.693Z,14.00
2022-12-22T12:34:21.382Z,14.60
2022-12-22T12:36:57.504Z,13.37
2022-12-22T12:39:31.749Z,13.00
2022-12-22T12:42:14.493Z,12.00
2022-12-22T12:44:43.036Z,12.40
2022-12-22T12:47:26.683Z,12.20
2022-12-22T12:50:27.234Z,10.97
2022-12-22T12:53:18.394Z,11.40
2022-12-22T12:56:01.421Z,10.07
2022-12-22T12:58:49.426Z,11.07
2022-12-22T13:01:53.324Z,10.70
2022-12-22T13:05:15.916Z,10.13
2022-12-22T13:08:20.620Z,10.80
2022-12-22T13:11:52.780Z,10.47
2022-12-22T13:14:12.039Z,10.10
2022-12-22T13:16:40.984Z,8.97
2022-12-22T13:19:27.547Z,9.70
2022-12-22T13:21:57.962Z,8.47
2022-12-22T13:24:32.040Z,9.07
2022-12-22T13:27:07.608Z,8.30
2022-12-22T13:29:46.284Z,7.33
2022-12-22T13:32:25.007Z,8.00
2022-12-22T13:35:30.353Z,7.53
2022-12-22T13:37:54.627Z,8.10
2022-12-22T13:40:26.136Z,7.23
2022-12-22T13:42:56.956Z,8.13
2022-12-22T13:45:33.981Z,8.33
2022-12-22T13:48:15.276Z,8.07
2022-12-22T13:50:47.054Z,7.47
2022-12-22T13:53:58.264Z,7.07
2022-12-22T13:56:16.039Z,7.10
2022-12-22T13:58:46.091Z,7.33
2022-12-22T14:01:19.066Z,7.17
2022-12-22T14:04:00.330Z,7.30
2022-12-22T14:06:31.861Z,6.93
2022-12-22T14:09:18.217Z,6.67
2022-12-22T14:11:52.721Z,7.03
2022-12-22T14:14:25.633Z,6.23
2022-12-22T14:16:55.754Z,6.23
2022-12-22T14:19:24.991Z,6.67
2022-12-22T14:22:03.435Z,6.70
2022-12-22T14:24:38.527Z,7.03
2022-12-22T14:27:16.682Z,6.33
2022-12-22T14:29:45.887Z,6.77
2022-12-22T14:32:37.292Z,7.53
2022-12-22T14:35:15.515Z,7.70
2022-12-22T14:37:43.655Z,7.40
2022-12-22T14:40:29.688Z,7.23
2022-12-22T14:43:02.119Z,7.30
2022-12-22T14:45:30.263Z,7.77
2022-12-22T14:47:58.709Z,8.03
2022-12-22T14:50:28.986Z,7.60
2022-12-22T14:53:01.639Z,7.83
2022-12-22T14:55:33.209Z,8.50
2022-12-22T14:58:08.553Z,8.53
2022-12-22T15:00:40.050Z,8.03
2022-12-22T15:03:31.462Z,8.00
2022-12-22T15:06:23.345Z,7.33
2022-12-22T15:08:53.506Z,10.60
2022-12-22T15:11:25.276Z,11.07
2022-12-22T15:13:54.869Z,10.40
2022-12-22T15:16:24.552Z,8.80
2022-12-22T15:18:53.739Z,8.90
2022-12-22T15:21:23.002Z,9.27
2022-12-22T15:23:51.065Z,7.77
2022-12-22T15:26:19.060Z,8.80
2022-12-22T15:28:47.107Z,9.60
2022-12-22T15:31:18.241Z,10.07
2022-12-22T15:33:46.833Z,9.10
2022-12-22T15:36:15.494Z,9.13
2022-12-22T15:38:43.810Z,7.53
2022-12-22T15:41:11.818Z,8.13
2022-12-22T15:46:29.205Z,7.60
2022-12-22T15:48:57.328Z,8.57
2022-12-22T15:51:27.529Z,8.03
2022-12-22T15:53:56.536Z,7.50
2022-12-22T15:56:26.193Z,7.03
2022-12-22T15:58:54.787Z,7.80
2022-12-22T16:01:22.923Z,7.77
2022-12-22T16:03:52.349Z,8.23
2022-12-22T16:06:21.034Z,7.87
2022-12-22T16:08:52.850Z,7.90
2022-12-22T16:11:21.217Z,7.97
2022-12-22T16:13:51.192Z,7.97
2022-12-22T16:16:19.324Z,8.50
2022-12-22T16:18:47.418Z,8.50
2022-12-22T16:21:19.799Z,8.77
2022-12-22T16:23:50.493Z,8.23
2022-12-22T16:26:21.382Z,8.73
2022-12-22T16:28:49.455Z,8.37
2022-12-22T16:31:19.667Z,8.37
2022-12-22T16:33:47.817Z,8.20
2022-12-22T16:36:17.166Z,8.07
2022-12-22T16:38:47.448Z,8.03
2022-12-22T16:41:24.771Z,8.53
2022-12-22T16:44:02.187Z,8.90
2022-12-22T16:46:37.610Z,8.03
2022-12-22T16:49:09.032Z,8.27
2022-12-22T16:51:46.120Z,8.60
2022-12-22T16:54:15.427Z,8.80
2022-12-22T16:56:46.327Z,8.93
2022-12-22T16:59:14.547Z,7.60
2022-12-22T17:01:46.573Z,8.13
2022-12-22T17:04:17.339Z,7.83
2022-12-22T17:06:48.674Z,8.57
2022-12-22T17:09:19.801Z,8.77
2022-12-22T17:11:48.570Z,9.50
2022-12-22T17:14:24.028Z,9.60
2022-12-22T17:16:53.323Z,9.83
2022-12-22T17:19:21.646Z,9.80
2022-12-22T17:21:53.236Z,9.23
2022-12-22T17:24:28.254Z,10.20
2022-12-22T17:27:00.316Z,9.17
2022-12-22T17:29:28.430Z,9.93
2022-12-22T17:31:56.907Z,10.67
2022-12-22T17:34:25.164Z,10.53
2022-12-22T17:36:56.753Z,10.40
2022-12-22T17:39:25.581Z,10.13
2022-12-22T17:41:57.374Z,9.90
2022-12-22T17:44:27.998Z,9.70
2022-12-22T17:46:56.222Z,11.20
2022-12-22T17:49:24.720Z,10.43
2022-12-22T17:51:54.204Z,9.90
2022-12-22T17:54:25.435Z,11.07
2022-12-22T17:57:01.415Z,10.90
2022-12-22T17:59:29.940Z,10.63
2022-12-22T18:01:58.847Z,10.97
2022-12-22T18:04:26.994Z,11.47
2022-12-22T18:06:56.540Z,11.73
2022-12-22T18:09:26.757Z,11.60
2022-12-22T18:11:55.430Z,11.57
2022-12-22T18:14:24.364Z,10.97
2022-12-22T18:16:52.545Z,12.33
2022-12-22T18:19:20.650Z,11.60
2022-12-22T18:21:49.085Z,12.77
2022-12-22T18:24:19.904Z,12.70
2022-12-22T18:26:48.736Z,12.23
2022-12-22T18:29:17.350Z,12.20
2022-12-22T18:31:45.458Z,12.33
2022-12-22T18:34:14.035Z,14.93
2022-12-22T18:36:45.354Z,12.77
2022-12-22T18:39:22.276Z,13.13
2022-12-22T18:41:54.124Z,13.40
2022-12-22T18:44:22.207Z,12.40
2022-12-22T18:46:50.574Z,12.33
2022-12-22T18:49:19.581Z,12.93
2022-12-22T18:51:48.037Z,10.90
2022-12-22T18:54:25.497Z,12.47
2022-12-22T18:56:53.551Z,11.87
2022-12-22T18:59:24.965Z,11.93
2022-12-22T19:01:53.509Z,11.57
2022-12-22T19:04:21.638Z,12.13
2022-12-22T19:06:49.613Z,13.30
2022-12-22T19:09:17.658Z,12.67
2022-12-22T19:11:47.281Z,12.50
2022-12-22T19:14:18.649Z,12.17
2022-12-22T19:16:47.554Z,12.77
2022-12-22T19:19:19.514Z,11.40
2022-12-22T19:21:48.561Z,12.30
2022-12-22T19:24:16.645Z,12.63
2022-12-22T19:26:46.078Z,11.63
2022-12-22T19:29:15.494Z,12.30
2022-12-22T19:31:45.224Z,13.27
2022-12-22T19:34:20.481Z,12.20
2022-12-22T19:36:48.508Z,12.20
2022-12-22T19:39:16.533Z,12.53
2022-12-22T19:41:48.024Z,12.80
2022-12-22T19:44:22.118Z,12.57
2022-12-22T19:46:50.592Z,13.37
2022-12-22T19:49:20.600Z,14.70
2022-12-22T19:51:48.831Z,13.77
2022-12-22T19:54:17.497Z,13.87
2022-12-22T19:56:49.670Z,13.37
2022-12-22T19:59:28.123Z,13.17
2022-12-22T20:01:58.543Z,14.57
2022-12-22T20:04:26.975Z,14.53
2022-12-22T20:06:55.113Z,14.13
2022-12-22T20:09:23.133Z,15.37
2022-12-22T20:11:52.533Z,14.50
2022-12-22T20:14:20.858Z,15.37
2022-12-22T20:16:49.040Z,16.23
2022-12-22T20:19:17.545Z,15.40
2022-12-22T20:21:45.831Z,15.63
2022-12-22T20:24:21.167Z,16.00
2022-12-22T20:26:54.174Z,16.67
2022-12-22T20:29:25.286Z,15.33
2022-12-22T20:31:53.776Z,16.77
2022-12-22T20:34:21.901Z,17.13
2022-12-22T20:36:49.971Z,17.10
2022-12-22T20:39:20.324Z,17.00
2022-12-22T20:41:53.076Z,16.97
2022-12-22T20:44:24.304Z,16.73
2022-12-22T20:46:52.470Z,15.80
2022-12-22T20:49:20.518Z,16.27
2022-12-22T20:51:48.922Z,16.57
2022-12-22T20:54:17.626Z,16.33
2022-12-22T20:56:46.206Z,17.27
2022-12-22T20:59:16.512Z,17.00
2022-12-22T21:01:46.647Z,17.90
2022-12-22T21:04:15.159Z,19.10
2022-12-22T21:06:48.008Z,18.23
2022-12-22T21:09:16.377Z,19.77
2022-12-22T21:11:45.150Z,19.73
2022-12-22T21:14:13.835Z,19.80
2022-12-22T21:16:42.964Z,17.83
2022-12-22T21:19:17.010Z,21.20
2022-12-22T21:21:45.074Z,20.50
2022-12-22T21:24:13.127Z,20.83
2022-12-22T21:26:45.945Z,19.03
2022-12-22T21:29:17.517Z,19.73
2022-12-22T21:31:45.566Z,18.70
2022-12-22T21:34:15.036Z,19.40
2022-12-22T21:36:49.556Z,18.67
2022-12-22T21:39:24.355Z,19.50
2022-12-22T21:42:01.450Z,18.40
2022-12-22T21:44:30.518Z,19.93
2022-12-22T21:46:59.376Z,17.23
2022-12-22T21:49:31.850Z,19.83
2022-12-22T21:52:00.246Z,20.27
2022-12-22T21:54:28.438Z,19.93
2022-12-22T21:56:56.593Z,20.93
2022-12-22T21:59:24.884Z,20.63
2022-12-22T22:01:53.665Z,20.23
2022-12-22T22:04:22.372Z,18.17
2022-12-22T22:06:51.775Z,20.77
2022-12-22T22:09:19.856Z,19.30
2022-12-22T22:12:05.677Z,20.03
2022-12-22T22:14:33.732Z,20.20
2022-12-22T22:17:01.758Z,20.50
2022-12-22T22:19:29.889Z,20.40
2022-12-22T22:21:59.312Z,21.97
2022-12-22T22:24:27.319Z,19.60
2022-12-22T22:26:56.466Z,19.60
2022-12-22T22:29:24.538Z,20.03
2022-12-22T22:31:52.540Z,20.87
2022-12-22T22:34:20.531Z,19.27
2022-12-22T22:36:48.573Z,22.60
2022-12-22T22:39:17.953Z,20.13
2022-12-22T22:41:45.977Z,21.27
2022-12-22T22:44:14.037Z,19.83
2022-12-22T22:46:42.345Z,19.73
2022-12-22T22:49:10.412Z,21.43
2022-12-22T22:51:38.804Z,22.20
2022-12-22T22:54:06.942Z,21.87
2022-12-22T22:56:38.710Z,21.30
2022-12-22T22:59:06.949Z,20.63
2022-12-22T23:01:35.000Z,20.20
2022-12-22T23:04:03.120Z,20.53
2022-12-22T23:06:31.255Z,20.50
2022-12-22T23:08:59.340Z,21.23
2022-12-22T23:11:27.580Z,20.90
2022-12-22T23:13:57.641Z,20.40
2022-12-22T23:16:25.715Z,22.63
2022-12-22T23:18:54.111Z,22.00
2022-12-22T23:21:23.341Z,23.00
2022-12-22T23:23:55.646Z,22.00
2022-12-22T23:26:24.238Z,20.43
2022-12-22T23:28:54.559Z,21.90
2022-12-22T23:31:27.417Z,22.40
2022-12-22T23:33:56.969Z,21.53
2022-12-22T23:36:25.042Z,20.87
2022-12-22T23:38:53.102Z,21.77
2022-12-22T23:41:21.271Z,21.77
2022-12-22T23:43:49.301Z,21.47
2022-12-22T23:46:18.473Z,22.03
2022-12-22T23:48:51.288Z,21.73
2022-12-22T23:51:19.315Z,22.63
2022-12-22T23:53:47.316Z,21.07
2022-12-22T23:56:16.047Z,24.17
2022-12-22T23:58:47.064Z,21.90
